Time;durP1;ratioP1;P1;durP2;ratioP2;P2;SDS_P1;SDS_P2;PMS_P1;PMS_P2;Temp;Humidity;BMP_temperature;BMP_pressure;BME280_temperature;BME280_humidity;BME280_pressure;Samples;Min_cycle;Max_cycle;Signal;HPM_P1;HPM_P2
2023/07/06 00:02:10;;;;;;;10.55;4.25;;;;;;;;;;6247341;22;20170;-90
2023/07/06 00:05:15;;;;;;;11.65;3.97;;;;;;;;;;6246403;23;20190;-90
2023/07/06 00:08:20;;;;;;;8.48;4.70;;;;;;;;;;6245624;23;20175;-87
2023/07/06 00:11:27;;;;;;;9.25;4.53;;;;;;;;;;6246110;23;20158;-91
2023/07/06 00:14:33;;;;;;;9.45;4.78;;;;;;;;;;6246677;22;20163;-90
2023/07/06 00:17:55;;;;;;;7.80;4.35;;;;;;;;;;6245189;22;20175;-91
2023/07/06 00:21:01;;;;;;;9.35;4.75;;;;;;;;;;6245808;23;20203;-91
2023/07/06 00:24:07;;;;;;;9.73;4.40;;;;;;;;;;6244374;23;20162;-91
2023/07/06 00:27:16;;;;;;;8.82;4.05;;;;;;;;;;6243371;23;20162;-88
2023/07/06 00:30:30;;;;;;;9.38;4.15;;;;;;;;;;6245319;22;20167;-89
2023/07/06 00:33:37;;;;;;;9.15;4.22;;;;;;;;;;6244397;22;20233;-89
2023/07/06 00:36:42;;;;;;;10.05;4.00;;;;;;;;;;6244171;23;20178;-87
2023/07/06 00:39:48;;;;;;;8.40;3.90;;;;;;;;;;6245168;23;20174;-87
2023/07/06 00:42:55;;;;;;;11.75;3.88;;;;;;;;;;6245231;22;20162;-89
2023/07/06 00:46:06;;;;;;;8.35;3.80;;;;;;;;;;6245725;22;20194;-90
2023/07/06 00:49:15;;;;;;;9.15;3.45;;;;;;;;;;6243447;23;20171;-90
2023/07/06 00:52:21;;;;;;;6.07;3.78;;;;;;;;;;6244711;23;20166;-90
2023/07/06 00:55:29;;;;;;;7.78;3.35;;;;;;;;;;6244563;23;20201;-91
2023/07/06 01:02:13;;;;;;;4.60;2.88;;;;;;;;;;6262954;22;20190;-90
2023/07/06 01:05:19;;;;;;;6.95;3.65;;;;;;;;;;6244553;23;20190;-89
2023/07/06 01:08:25;;;;;;;11.20;3.92;;;;;;;;;;6246308;23;20181;-90
2023/07/06 01:11:32;;;;;;;7.50;3.30;;;;;;;;;;6244415;23;20166;-89
2023/07/06 01:14:37;;;;;;;10.00;3.33;;;;;;;;;;6245779;22;20204;-90
2023/07/06 01:17:53;;;;;;;5.25;3.28;;;;;;;;;;6244573;23;20173;-90
2023/07/06 01:21:02;;;;;;;13.38;3.50;;;;;;;;;;6245776;23;20202;-91
2023/07/06 01:24:20;;;;;;;7.82;3.60;;;;;;;;;;6245488;23;20216;-90
2023/07/06 01:27:33;;;;;;;6.57;3.72;;;;;;;;;;6244479;22;20158;-89
2023/07/06 01:30:50;;;;;;;11.10;3.80;;;;;;;;;;6244797;23;20174;-91
2023/07/06 01:34:01;;;;;;;8.82;3.50;;;;;;;;;;6244904;23;20216;-91
2023/07/06 01:37:09;;;;;;;8.45;3.80;;;;;;;;;;6244793;23;20186;-91
2023/07/06 01:40:14;;;;;;;9.00;3.63;;;;;;;;;;6247413;22;20182;-91
2023/07/06 01:43:21;;;;;;;6.57;3.70;;;;;;;;;;6247824;23;20167;-90
2023/07/06 01:46:26;;;;;;;9.95;4.15;;;;;;;;;;6243071;23;20268;-88
2023/07/06 01:49:33;;;;;;;8.88;3.42;;;;;;;;;;6243940;22;20170;-91
2023/07/06 01:52:42;;;;;;;9.18;3.88;;;;;;;;;;6244759;23;20162;-88
2023/07/06 01:55:52;;;;;;;6.60;3.13;;;;;;;;;;6246299;23;20190;-91
2023/07/06 01:59:23;;;;;;;6.22;3.47;;;;;;;;;;6244731;22;20218;-89
2023/07/06 02:02:30;;;;;;;11.77;3.72;;;;;;;;;;6244909;23;20166;-91
2023/07/06 02:05:39;;;;;;;6.15;3.30;;;;;;;;;;6246474;23;20535;-89
2023/07/06 02:08:44;;;;;;;8.75;3.88;;;;;;;;;;6247001;22;20203;-90
2023/07/06 02:11:51;;;;;;;7.95;3.45;;;;;;;;;;6246421;22;20649;-92
2023/07/06 02:14:58;;;;;;;9.50;4.22;;;;;;;;;;6245374;23;20194;-92
2023/07/06 02:18:11;;;;;;;8.60;4.20;;;;;;;;;;6243555;23;20158;-90
2023/07/06 02:21:18;;;;;;;8.63;4.47;;;;;;;;;;6244472;23;20166;-92
2023/07/06 02:24:23;;;;;;;8.63;4.00;;;;;;;;;;6245955;22;20192;-92
2023/07/06 02:27:29;;;;;;;6.22;3.80;;;;;;;;;;6245349;22;20194;-91
2023/07/06 02:30:37;;;;;;;7.30;3.75;;;;;;;;;;6244672;23;20207;-91
2023/07/06 02:33:44;;;;;;;7.95;4.30;;;;;;;;;;6245584;22;20166;-90
2023/07/06 02:36:51;;;;;;;9.40;4.18;;;;;;;;;;6244784;22;20186;-90
2023/07/06 02:39:58;;;;;;;8.38;3.78;;;;;;;;;;6245614;23;20170;-91
2023/07/06 02:43:03;;;;;;;9.60;4.60;;;;;;;;;;6245402;23;20170;-90
2023/07/06 02:46:09;;;;;;;8.52;4.18;;;;;;;;;;6243379;23;20190;-90
2023/07/06 02:49:14;;;;;;;7.97;3.85;;;;;;;;;;6243985;23;20170;-88
2023/07/06 02:52:21;;;;;;;12.70;4.35;;;;;;;;;;6245259;22;20165;-90
2023/07/06 02:55:27;;;;;;;7.40;3.88;;;;;;;;;;6246595;23;20169;-91
2023/07/06 02:58:37;;;;;;;10.45;4.40;;;;;;;;;;6245367;22;20166;-91
2023/07/06 03:01:42;;;;;;;14.10;4.63;;;;;;;;;;6245630;23;20186;-93
2023/07/06 03:04:47;;;;;;;8.98;4.03;;;;;;;;;;6245817;23;20174;-90
2023/07/06 03:07:54;;;;;;;7.25;4.10;;;;;;;;;;6244446;22;20241;-90
2023/07/06 03:11:00;;;;;;;10.98;4.10;;;;;;;;;;6246924;23;20178;-92
2023/07/06 03:14:05;;;;;;;7.40;3.83;;;;;;;;;;6245414;22;20163;-89
2023/07/06 03:17:12;;;;;;;8.90;4.18;;;;;;;;;;6243856;23;20171;-91
2023/07/06 03:20:19;;;;;;;9.07;3.75;;;;;;;;;;6244884;22;20166;-92
2023/07/06 03:23:28;;;;;;;8.25;3.97;;;;;;;;;;6245856;23;20170;-93
2023/07/06 03:26:34;;;;;;;9.45;4.15;;;;;;;;;;6245679;22;20197;-88
2023/07/06 03:29:41;;;;;;;9.60;4.00;;;;;;;;;;6249547;23;20165;-91
2023/07/06 03:32:46;;;;;;;8.95;3.72;;;;;;;;;;6247496;23;20502;-90
2023/07/06 03:35:55;;;;;;;9.65;3.80;;;;;;;;;;6247016;22;20171;-87
2023/07/06 03:39:03;;;;;;;10.93;3.75;;;;;;;;;;6227979;23;20154;-89
2023/07/06 03:42:09;;;;;;;10.32;3.58;;;;;;;;;;6243553;22;20162;-90
2023/07/06 03:45:15;;;;;;;6.97;3.25;;;;;;;;;;6245721;23;20254;-90
2023/07/06 03:48:21;;;;;;;5.63;3.35;;;;;;;;;;6245851;23;20182;-93
2023/07/06 03:51:27;;;;;;;8.65;3.20;;;;;;;;;;6244542;23;20170;-90
2023/07/06 03:54:35;;;;;;;7.00;3.47;;;;;;;;;;6243143;22;20210;-88
2023/07/06 03:57:45;;;;;;;9.00;3.92;;;;;;;;;;6242390;22;20174;-91
2023/07/06 04:01:23;;;;;;;10.45;3.70;;;;;;;;;;6244204;23;20186;-93
2023/07/06 04:04:28;;;;;;;9.93;3.70;;;;;;;;;;6243578;23;20166;-91
2023/07/06 04:07:34;;;;;;;8.93;3.75;;;;;;;;;;6242384;23;20233;-89
2023/07/06 04:11:23;;;;;;;8.18;3.88;;;;;;;;;;6242132;22;20247;-87
2023/07/06 04:14:30;;;;;;;10.07;3.90;;;;;;;;;;6242312;23;20373;-90
2023/07/06 04:17:44;;;;;;;8.13;3.72;;;;;;;;;;6240622;22;20151;-93
2023/07/06 04:20:49;;;;;;;10.80;3.60;;;;;;;;;;6239518;22;20174;-91
2023/07/06 04:23:54;;;;;;;6.53;3.50;;;;;;;;;;6241791;23;20256;-93
2023/07/06 04:27:00;;;;;;;7.82;4.10;;;;;;;;;;6242440;22;20281;-92
2023/07/06 04:30:09;;;;;;;8.60;3.85;;;;;;;;;;6240964;23;20245;-89
2023/07/06 04:33:17;;;;;;;9.88;4.43;;;;;;;;;;6243560;22;20150;-91
2023/07/06 04:36:24;;;;;;;8.98;4.05;;;;;;;;;;6243313;23;20224;-90
2023/07/06 04:39:29;;;;;;;11.77;4.20;;;;;;;;;;6244283;23;20174;-90
2023/07/06 04:42:35;;;;;;;9.60;4.45;;;;;;;;;;6243354;22;20166;-93
2023/07/06 04:45:44;;;;;;;11.98;3.70;;;;;;;;;;6243235;23;20205;-90
2023/07/06 04:48:50;;;;;;;7.68;3.85;;;;;;;;;;6242485;22;20186;-89
2023/07/06 04:51:57;;;;;;;9.38;3.83;;;;;;;;;;6241432;23;20187;-89
2023/07/06 04:55:02;;;;;;;7.55;4.07;;;;;;;;;;6242095;23;20732;-88
2023/07/06 04:58:11;;;;;;;13.95;4.30;;;;;;;;;;6243567;22;20166;-88
2023/07/06 05:01:19;;;;;;;10.68;4.20;;;;;;;;;;6245147;23;20202;-89
2023/07/06 05:04:24;;;;;;;7.38;3.80;;;;;;;;;;6245894;23;20174;-89
2023/07/06 05:07:30;;;;;;;7.60;4.00;;;;;;;;;;6243880;23;20194;-89
2023/07/06 05:10:35;;;;;;;11.73;4.90;;;;;;;;;;6244213;22;20166;-89
2023/07/06 05:13:41;;;;;;;8.55;4.63;;;;;;;;;;6246640;22;20174;-92
2023/07/06 05:20:40;;;;;;;11.07;4.85;;;;;;;;;;6252325;23;20166;-89
2023/07/06 05:23:46;;;;;;;9.90;4.38;;;;;;;;;;6263822;22;20174;-90
2023/07/06 05:26:52;;;;;;;11.30;5.00;;;;;;;;;;6245057;23;20174;-93
2023/07/06 05:29:57;;;;;;;9.32;4.07;;;;;;;;;;6245544;23;20525;-90
2023/07/06 05:33:02;;;;;;;8.63;4.25;;;;;;;;;;6248208;23;20206;-93
2023/07/06 05:36:09;;;;;;;11.95;4.65;;;;;;;;;;6245708;22;20217;-90
2023/07/06 05:39:15;;;;;;;8.20;4.10;;;;;;;;;;6247156;23;20614;-90
2023/07/06 05:42:20;;;;;;;11.63;4.60;;;;;;;;;;6248346;23;20245;-91
2023/07/06 05:45:28;;;;;;;13.30;4.80;;;;;;;;;;6246453;23;20225;-90
2023/07/06 05:48:35;;;;;;;7.57;4.45;;;;;;;;;;6246459;22;20194;-91
2023/07/06 05:51:42;;;;;;;10.10;4.75;;;;;;;;;;6246564;22;20250;-89
2023/07/06 05:54:47;;;;;;;7.93;4.43;;;;;;;;;;6244998;23;20166;-93
2023/07/06 05:57:56;;;;;;;10.77;5.03;;;;;;;;;;6245839;22;20221;-90
2023/07/06 06:01:02;;;;;;;9.30;5.32;;;;;;;;;;6244760;23;20225;-89
2023/07/06 06:04:08;;;;;;;7.35;4.85;;;;;;;;;;6244956;22;20256;-87
2023/07/06 06:07:20;;;;;;;13.32;5.60;;;;;;;;;;6247460;22;20255;-89
2023/07/06 06:10:25;;;;;;;8.95;5.53;;;;;;;;;;6248425;23;20209;-92
2023/07/06 06:13:31;;;;;;;8.88;4.45;;;;;;;;;;6245951;23;20211;-91
2023/07/06 06:16:37;;;;;;;6.65;4.60;;;;;;;;;;6246169;23;20175;-92
2023/07/06 06:19:45;;;;;;;10.82;4.50;;;;;;;;;;6247084;22;20213;-89
2023/07/06 06:22:52;;;;;;;10.20;4.15;;;;;;;;;;6246393;22;20181;-89
2023/07/06 06:25:58;;;;;;;8.57;4.20;;;;;;;;;;6246220;23;20498;-89
2023/07/06 06:29:04;;;;;;;8.65;4.32;;;;;;;;;;6246353;23;20165;-90
2023/07/06 06:32:10;;;;;;;7.97;4.50;;;;;;;;;;6245281;23;20262;-88
2023/07/06 06:35:22;;;;;;;10.65;4.22;;;;;;;;;;6244662;22;20167;-88
2023/07/06 06:38:34;;;;;;;10.95;3.97;;;;;;;;;;6245855;22;20167;-90
2023/07/06 06:41:39;;;;;;;6.50;3.50;;;;;;;;;;6247064;22;20454;-90
2023/07/06 06:44:46;;;;;;;8.52;4.13;;;;;;;;;;6246281;23;20213;-92
2023/07/06 06:47:52;;;;;;;9.98;3.97;;;;;;;;;;6244933;23;20189;-89
2023/07/06 06:50:57;;;;;;;9.95;4.40;;;;;;;;;;6247341;23;20166;-90
2023/07/06 06:54:04;;;;;;;9.50;3.80;;;;;;;;;;6246447;22;20216;-90
2023/07/06 06:57:10;;;;;;;6.85;3.47;;;;;;;;;;6245433;22;20197;-90
2023/07/06 07:00:16;;;;;;;8.68;3.65;;;;;;;;;;6247682;23;20217;-90
2023/07/06 07:03:22;;;;;;;7.55;3.67;;;;;;;;;;6252587;22;20254;-91
2023/07/06 07:06:28;;;;;;;7.55;4.07;;;;;;;;;;6246927;23;20166;-91
2023/07/06 07:09:35;;;;;;;8.88;3.97;;;;;;;;;;6246054;22;20170;-90
2023/07/06 07:12:40;;;;;;;7.35;4.18;;;;;;;;;;6247011;22;20233;-89
2023/07/06 07:15:46;;;;;;;6.75;3.63;;;;;;;;;;6248411;23;20251;-91
2023/07/06 07:18:55;;;;;;;7.97;3.70;;;;;;;;;;6246415;23;20629;-90
2023/07/06 07:22:01;;;;;;;6.18;3.78;;;;;;;;;;6245037;23;20166;-91
2023/07/06 07:25:08;;;;;;;8.68;3.30;;;;;;;;;;6246390;23;20190;-89
2023/07/06 07:28:16;;;;;;;10.50;3.50;;;;;;;;;;6243730;23;20194;-89
2023/07/06 07:31:22;;;;;;;6.65;3.70;;;;;;;;;;6245210;23;20167;-90
2023/07/06 07:34:28;;;;;;;9.48;4.00;;;;;;;;;;6245358;23;20166;-91
2023/07/06 07:37:35;;;;;;;8.13;3.70;;;;;;;;;;6219582;23;20186;-91
2023/07/06 07:40:52;;;;;;;11.88;4.40;;;;;;;;;;6244687;22;20150;-90
2023/07/06 07:43:58;;;;;;;8.02;3.42;;;;;;;;;;6246655;22;20170;-91
2023/07/06 07:47:03;;;;;;;6.30;3.30;;;;;;;;;;6245843;23;20189;-92
2023/07/06 07:50:09;;;;;;;8.57;3.72;;;;;;;;;;6245781;23;20170;-90
2023/07/06 07:53:16;;;;;;;6.53;3.70;;;;;;;;;;6247156;23;20233;-91
2023/07/06 07:56:24;;;;;;;7.15;3.55;;;;;;;;;;6247978;22;20185;-92
2023/07/06 08:03:29;;;;;;;11.85;4.55;;;;;;;;;;6247779;23;20154;-91
2023/07/06 08:06:34;;;;;;;12.48;4.20;;;;;;;;;;6246027;22;20154;-91
2023/07/06 08:09:41;;;;;;;6.38;3.55;;;;;;;;;;6246780;22;20169;-90
2023/07/06 08:12:48;;;;;;;6.82;3.42;;;;;;;;;;6244598;23;20548;-91
2023/07/06 08:15:55;;;;;;;6.85;3.42;;;;;;;;;;6246903;23;20213;-92
2023/07/06 08:22:51;;;;;;;5.60;2.92;;;;;;;;;;6245857;22;20193;-91
2023/07/06 08:25:57;;;;;;;9.10;3.20;;;;;;;;;;6246051;23;20282;-91
2023/07/06 08:29:04;;;;;;;6.47;3.17;;;;;;;;;;6246217;23;20246;-91
2023/07/06 08:32:11;;;;;;;5.43;2.53;;;;;;;;;;6243608;23;20150;-91
2023/07/06 08:35:17;;;;;;;5.28;2.85;;;;;;;;;;6245566;22;20173;-91
2023/07/06 08:42:14;;;;;;;4.40;2.50;;;;;;;;;;6247755;23;20285;-91
2023/07/06 08:45:23;;;;;;;5.13;2.53;;;;;;;;;;6242652;22;20243;-92
2023/07/06 08:48:31;;;;;;;5.53;2.30;;;;;;;;;;6245220;22;20526;-91
2023/07/06 08:51:37;;;;;;;5.22;2.42;;;;;;;;;;6245560;22;20169;-90
2023/07/06 08:54:48;;;;;;;7.65;2.47;;;;;;;;;;6243280;23;20185;-91
2023/07/06 08:57:55;;;;;;;5.72;2.35;;;;;;;;;;6243827;23;20205;-92
2023/07/06 09:01:05;;;;;;;3.95;2.30;;;;;;;;;;6246051;23;20178;-91
2023/07/06 09:04:15;;;;;;;5.47;2.13;;;;;;;;;;6248901;22;20163;-92
2023/07/06 09:07:24;;;;;;;6.32;3.17;;;;;;;;;;6249483;23;20193;-92
2023/07/06 09:10:38;;;;;;;5.35;2.20;;;;;;;;;;6248104;23;20170;-88
2023/07/06 09:13:47;;;;;;;4.43;2.20;;;;;;;;;;6250276;22;20231;-90
2023/07/06 09:16:56;;;;;;;4.70;2.25;;;;;;;;;;6249830;22;20173;-91
2023/07/06 09:20:06;;;;;;;7.32;2.40;;;;;;;;;;6249039;22;20197;-90
